Portada
METAR-TAF:

METAR-TAF

Aeroports :

Jaipur, Índia

latitud: 26-49N, longitud: 075-48E, altitud: 385 m

Observació

L'informe es va fer fa 30 minuts, a les 04:00 UTC
Vent 10 kt del Oest/Nord-Oest
Temperatura 30°C
Humitat 55%
Pressió 1010 hPa
Visibilitat: 4000 m
calitja

METAR: VIJP 010400Z 30010KT 4000 HZ NSC 30/20 Q1010 NOSIG

Hora: 10:00 (04:30 UTC)

Pronòstic

L'informe es va fer fa 2 hores i 30 minuts, a les 02:00 UTC
Pronòstic vàlid del 01 a les 03 UTC al 01 a les 12 UTC
Vent 10 kt del Nord-Oest
Visibilitat: 5000 m
Núvols disperses a una alçada de 3000 ft
calitja

TAF: VIJP 010200Z 0103/0112 32010KT 5000 HZ SCT030

Observacions i pronòstics meteorològics de més de 4000 aeroports (METAR i TAF).

Les estacions disponibles són els punts grocs i vermells al mapa.

Posi el ratolí al punt desitjat per veure el nom de l'estació.

Feu clic per veure les observacions i els pronòstics meteorològics.

Per canviar el mapa: feu clic els botons verds amb una creu de color negre per apropar; al botó verd amb un guió per allunyar la imatge; o en les fletxes verdes per a mapes adjacents.


METAR-TAF: